This is the latest recevied weather packets stored in our database for station/object K4PAD. If no packets are shown the sender has not sent any weather packets the latest 10 day(s).
| Time | Temp. | Humidity | Pressure | Rain* | Wind** | Luminosity | Snow |
|---|---|---|---|---|---|---|---|
| 1777837895 | 23.89° C | 42% | 1019 hPa | 0 mm | - | 852 W/m² | - |
| 1777837592 | 24.44° C | 41% | 1019.2 hPa | 0 mm | - | 696 W/m² | - |
| 1777837287 | 23.89° C | 42% | 1019.3 hPa | 0 mm | - | 915 W/m² | - |
| 1777836985 | 24.44° C | 40% | 1019.3 hPa | 0 mm | - | 897 W/m² | - |
| 1777836680 | 25° C | 40% | 1019.4 hPa | 0 mm | - | 701 W/m² | - |
| 1777836376 | 24.44° C | 41% | 1019.3 hPa | 0 mm | - | 992 W/m² | - |
| 1777836072 | 23.89° C | 43% | 1019.6 hPa | 0 mm | - | 970 W/m² | - |
| 1777835769 | 24.44° C | 42% | 1019.7 hPa | 0 mm | - | 841 W/m² | - |
| 1777835466 | 24.44° C | 42% | 1019.5 hPa | 0 mm | - | 991 W/m² | - |
| 1777835163 | 23.89° C | 43% | 1019.7 hPa | 0 mm | - | 813 W/m² | - |
| 1777834860 | 23.89° C | 42% | 1019.7 hPa | 0 mm | - | 905 W/m² | - |
| 1777834556 | 24.44° C | 42% | 1019.9 hPa | 0 mm | - | 1088 W/m² | - |
| 1777834256 | 23.89° C | 44% | 1019.9 hPa | 0 mm | - | 965 W/m² | - |
| 1777833952 | 23.89° C | 43% | 1020.1 hPa | 0 mm | - | 1101 W/m² | - |
| 1777833649 | 24.44° C | 44% | 1020.2 hPa | 0 mm | - | 934 W/m² | - |
| 1777833345 | 24.44° C | 42% | 1019.7 hPa | 0 mm | - | 1051 W/m² | - |
| 1777833043 | 23.33° C | 43% | 1020.1 hPa | 0 mm | - | 1050 W/m² | - |
| 1777832741 | 21.67° C | 49% | 1020.1 hPa | 0 mm | - | 1032 W/m² | - |
| 1777832439 | 22.78° C | 47% | 1020.2 hPa | 0 mm | - | 244 W/m² | - |
| 1777832135 | 23.33° C | 45% | 1020.2 hPa | 0 mm | - | 223 W/m² | - |
| 1777831832 | 22.78° C | 47% | 1020.4 hPa | 0 mm | - | 1173 W/m² | - |
| 1777831529 | 23.33° C | 46% | 1020.3 hPa | 0 mm | - | 670 W/m² | - |
| 1777831226 | 22.78° C | 47% | 1020.4 hPa | 0 mm | - | 1112 W/m² | - |
| 1777830924 | 23.33° C | 44% | 1020.5 hPa | 0 mm | - | 1088 W/m² | - |
| 1777830620 | 23.89° C | 45% | 1020.4 hPa | 0 mm | - | 1109 W/m² | - |
* Rain latest hour (hover to see other rain measurements)
** Current wind speed in m/s (hover to see current wind gust speed)